sensor_id;sensor_type;location;lat;lon;timestamp;P1;durP1;ratioP1;P2;durP2;ratioP2
4909;SDS011;2470;49.868;8.660;2022-09-14T00:01:34;2.92;;;2.30;;
4909;SDS011;2470;49.868;8.660;2022-09-14T00:04:06;3.47;;;2.33;;
4909;SDS011;2470;49.868;8.660;2022-09-14T00:06:35;3.05;;;2.45;;
4909;SDS011;2470;49.868;8.660;2022-09-14T00:09:00;4.97;;;2.95;;
4909;SDS011;2470;49.868;8.660;2022-09-14T00:11:27;3.25;;;2.70;;
4909;SDS011;2470;49.868;8.660;2022-09-14T00:13:55;2.78;;;2.33;;
4909;SDS011;2470;49.868;8.660;2022-09-14T00:16:23;4.63;;;3.10;;
4909;SDS011;2470;49.868;8.660;2022-09-14T00:18:51;5.93;;;2.65;;
4909;SDS011;2470;49.868;8.660;2022-09-14T00:21:18;3.40;;;2.33;;
4909;SDS011;2470;49.868;8.660;2022-09-14T00:23:44;5.78;;;3.17;;
4909;SDS011;2470;49.868;8.660;2022-09-14T00:26:11;4.55;;;3.10;;
4909;SDS011;2470;49.868;8.660;2022-09-14T00:28:43;4.18;;;2.55;;
4909;SDS011;2470;49.868;8.660;2022-09-14T00:31:10;2.83;;;2.30;;
4909;SDS011;2470;49.868;8.660;2022-09-14T00:33:36;2.38;;;2.15;;
4909;SDS011;2470;49.868;8.660;2022-09-14T00:36:05;6.15;;;3.33;;
4909;SDS011;2470;49.868;8.660;2022-09-14T00:38:32;2.67;;;2.40;;
4909;SDS011;2470;49.868;8.660;2022-09-14T00:40:59;3.38;;;2.95;;
4909;SDS011;2470;49.868;8.660;2022-09-14T00:43:27;3.85;;;3.10;;
4909;SDS011;2470;49.868;8.660;2022-09-14T00:45:53;5.03;;;3.20;;
4909;SDS011;2470;49.868;8.660;2022-09-14T00:48:19;3.92;;;2.85;;
4909;SDS011;2470;49.868;8.660;2022-09-14T00:50:48;4.10;;;3.03;;
4909;SDS011;2470;49.868;8.660;2022-09-14T00:53:14;6.10;;;3.17;;
4909;SDS011;2470;49.868;8.660;2022-09-14T00:55:40;3.45;;;2.80;;
4909;SDS011;2470;49.868;8.660;2022-09-14T00:58:05;3.20;;;2.50;;
4909;SDS011;2470;49.868;8.660;2022-09-14T01:00:31;5.78;;;2.95;;
4909;SDS011;2470;49.868;8.660;2022-09-14T01:02:56;4.25;;;2.95;;
4909;SDS011;2470;49.868;8.660;2022-09-14T01:05:25;4.43;;;3.10;;
4909;SDS011;2470;49.868;8.660;2022-09-14T01:08:03;3.72;;;2.95;;
4909;SDS011;2470;49.868;8.660;2022-09-14T01:10:40;4.22;;;2.70;;
4909;SDS011;2470;49.868;8.660;2022-09-14T01:13:39;5.10;;;3.20;;
4909;SDS011;2470;49.868;8.660;2022-09-14T01:16:31;5.13;;;3.03;;
4909;SDS011;2470;49.868;8.660;2022-09-14T01:19:03;4.57;;;2.80;;
4909;SDS011;2470;49.868;8.660;2022-09-14T01:21:38;2.80;;;2.45;;
4909;SDS011;2470;49.868;8.660;2022-09-14T01:24:15;4.38;;;2.80;;
4909;SDS011;2470;49.868;8.660;2022-09-14T01:29:32;3.00;;;2.35;;
4909;SDS011;2470;49.868;8.660;2022-09-14T01:32:17;4.30;;;3.13;;
4909;SDS011;2470;49.868;8.660;2022-09-14T01:34:50;4.55;;;3.00;;
4909;SDS011;2470;49.868;8.660;2022-09-14T01:37:39;2.72;;;2.42;;
4909;SDS011;2470;49.868;8.660;2022-09-14T01:40:43;3.97;;;3.13;;
4909;SDS011;2470;49.868;8.660;2022-09-14T01:43:16;3.53;;;2.88;;
4909;SDS011;2470;49.868;8.660;2022-09-14T01:45:53;4.05;;;3.60;;
4909;SDS011;2470;49.868;8.660;2022-09-14T01:48:44;5.18;;;3.42;;
4909;SDS011;2470;49.868;8.660;2022-09-14T01:51:33;4.47;;;2.67;;
4909;SDS011;2470;49.868;8.660;2022-09-14T01:54:06;7.75;;;4.30;;
4909;SDS011;2470;49.868;8.660;2022-09-14T01:56:39;3.90;;;2.90;;
4909;SDS011;2470;49.868;8.660;2022-09-14T01:59:14;3.42;;;2.95;;
4909;SDS011;2470;49.868;8.660;2022-09-14T02:01:46;4.10;;;3.70;;
4909;SDS011;2470;49.868;8.660;2022-09-14T02:04:16;3.35;;;2.88;;
4909;SDS011;2470;49.868;8.660;2022-09-14T02:06:50;3.72;;;2.80;;
4909;SDS011;2470;49.868;8.660;2022-09-14T02:09:17;4.53;;;3.15;;
4909;SDS011;2470;49.868;8.660;2022-09-14T02:11:46;3.35;;;3.03;;
4909;SDS011;2470;49.868;8.660;2022-09-14T02:14:12;4.25;;;2.83;;
4909;SDS011;2470;49.868;8.660;2022-09-14T02:16:38;4.72;;;3.30;;
4909;SDS011;2470;49.868;8.660;2022-09-14T02:19:07;5.05;;;2.88;;
4909;SDS011;2470;49.868;8.660;2022-09-14T02:21:33;4.07;;;2.67;;
4909;SDS011;2470;49.868;8.660;2022-09-14T02:23:59;3.95;;;2.67;;
4909;SDS011;2470;49.868;8.660;2022-09-14T02:26:26;3.13;;;2.50;;
4909;SDS011;2470;49.868;8.660;2022-09-14T02:28:53;4.53;;;3.25;;
4909;SDS011;2470;49.868;8.660;2022-09-14T02:39:16;4.15;;;3.08;;
4909;SDS011;2470;49.868;8.660;2022-09-14T02:41:57;4.30;;;3.13;;
4909;SDS011;2470;49.868;8.660;2022-09-14T02:44:38;6.45;;;2.70;;
4909;SDS011;2470;49.868;8.660;2022-09-14T02:47:26;5.70;;;3.72;;
4909;SDS011;2470;49.868;8.660;2022-09-14T02:50:01;4.55;;;2.25;;
4909;SDS011;2470;49.868;8.660;2022-09-14T02:52:50;3.20;;;2.90;;
4909;SDS011;2470;49.868;8.660;2022-09-14T02:55:36;3.58;;;3.20;;
4909;SDS011;2470;49.868;8.660;2022-09-14T02:58:09;4.03;;;2.50;;
4909;SDS011;2470;49.868;8.660;2022-09-14T03:00:37;6.68;;;3.05;;
4909;SDS011;2470;49.868;8.660;2022-09-14T03:03:11;3.45;;;3.08;;
4909;SDS011;2470;49.868;8.660;2022-09-14T03:05:38;3.70;;;3.08;;
4909;SDS011;2470;49.868;8.660;2022-09-14T03:08:04;3.78;;;2.58;;
4909;SDS011;2470;49.868;8.660;2022-09-14T03:10:30;2.72;;;2.20;;
4909;SDS011;2470;49.868;8.660;2022-09-14T03:12:57;3.13;;;2.83;;
4909;SDS011;2470;49.868;8.660;2022-09-14T03:15:23;5.50;;;3.50;;
4909;SDS011;2470;49.868;8.660;2022-09-14T03:17:49;4.65;;;3.50;;
4909;SDS011;2470;49.868;8.660;2022-09-14T03:20:20;6.50;;;3.17;;
4909;SDS011;2470;49.868;8.660;2022-09-14T03:22:53;6.10;;;3.13;;
4909;SDS011;2470;49.868;8.660;2022-09-14T03:25:19;3.95;;;2.88;;
4909;SDS011;2470;49.868;8.660;2022-09-14T03:27:50;4.90;;;3.28;;
4909;SDS011;2470;49.868;8.660;2022-09-14T03:30:17;4.88;;;2.85;;
4909;SDS011;2470;49.868;8.660;2022-09-14T03:32:43;2.35;;;1.98;;
4909;SDS011;2470;49.868;8.660;2022-09-14T03:35:08;4.88;;;2.42;;
4909;SDS011;2470;49.868;8.660;2022-09-14T03:37:37;2.97;;;2.38;;
4909;SDS011;2470;49.868;8.660;2022-09-14T03:40:04;5.72;;;3.58;;
4909;SDS011;2470;49.868;8.660;2022-09-14T03:42:31;4.55;;;3.00;;
4909;SDS011;2470;49.868;8.660;2022-09-14T03:44:57;2.75;;;2.55;;
4909;SDS011;2470;49.868;8.660;2022-09-14T03:47:22;4.70;;;2.97;;
4909;SDS011;2470;49.868;8.660;2022-09-14T03:49:48;4.63;;;2.35;;
4909;SDS011;2470;49.868;8.660;2022-09-14T03:52:14;5.00;;;3.38;;
4909;SDS011;2470;49.868;8.660;2022-09-14T03:54:40;4.18;;;2.65;;
4909;SDS011;2470;49.868;8.660;2022-09-14T03:57:05;6.50;;;2.65;;
4909;SDS011;2470;49.868;8.660;2022-09-14T03:59:31;2.95;;;2.58;;
4909;SDS011;2470;49.868;8.660;2022-09-14T04:01:57;3.22;;;2.78;;
4909;SDS011;2470;49.868;8.660;2022-09-14T04:04:22;5.60;;;3.13;;
4909;SDS011;2470;49.868;8.660;2022-09-14T04:06:48;4.60;;;2.58;;
4909;SDS011;2470;49.868;8.660;2022-09-14T04:09:14;3.47;;;2.72;;
4909;SDS011;2470;49.868;8.660;2022-09-14T04:11:39;3.08;;;2.78;;
4909;SDS011;2470;49.868;8.660;2022-09-14T04:14:05;4.25;;;2.78;;
4909;SDS011;2470;49.868;8.660;2022-09-14T04:16:32;4.53;;;2.75;;
4909;SDS011;2470;49.868;8.660;2022-09-14T04:18:57;5.97;;;3.42;;
4909;SDS011;2470;49.868;8.660;2022-09-14T04:21:24;3.92;;;3.05;;
4909;SDS011;2470;49.868;8.660;2022-09-14T04:23:53;3.83;;;3.00;;
4909;SDS011;2470;49.868;8.660;2022-09-14T04:26:21;4.47;;;2.80;;
4909;SDS011;2470;49.868;8.660;2022-09-14T04:28:48;4.55;;;3.00;;
4909;SDS011;2470;49.868;8.660;2022-09-14T04:31:13;3.22;;;2.70;;
4909;SDS011;2470;49.868;8.660;2022-09-14T04:33:40;4.85;;;2.53;;
4909;SDS011;2470;49.868;8.660;2022-09-14T04:36:11;3.63;;;2.85;;
4909;SDS011;2470;49.868;8.660;2022-09-14T04:38:38;5.03;;;2.17;;
4909;SDS011;2470;49.868;8.660;2022-09-14T04:41:11;2.70;;;2.50;;
4909;SDS011;2470;49.868;8.660;2022-09-14T04:43:42;2.40;;;2.10;;
4909;SDS011;2470;49.868;8.660;2022-09-14T04:46:19;2.58;;;2.38;;
4909;SDS011;2470;49.868;8.660;2022-09-14T04:48:46;3.15;;;2.60;;
4909;SDS011;2470;49.868;8.660;2022-09-14T04:51:13;2.55;;;1.85;;
4909;SDS011;2470;49.868;8.660;2022-09-14T04:53:47;4.00;;;2.30;;
4909;SDS011;2470;49.868;8.660;2022-09-14T04:56:15;1.90;;;1.75;;
4909;SDS011;2470;49.868;8.660;2022-09-14T04:58:42;2.30;;;2.00;;
4909;SDS011;2470;49.868;8.660;2022-09-14T05:01:15;2.20;;;1.70;;
4909;SDS011;2470;49.868;8.660;2022-09-14T05:03:43;1.98;;;1.70;;
4909;SDS011;2470;49.868;8.660;2022-09-14T05:06:10;2.13;;;1.77;;
4909;SDS011;2470;49.868;8.660;2022-09-14T05:08:37;1.90;;;1.60;;
4909;SDS011;2470;49.868;8.660;2022-09-14T05:11:05;2.00;;;1.48;;
4909;SDS011;2470;49.868;8.660;2022-09-14T05:13:31;1.90;;;1.73;;
4909;SDS011;2470;49.868;8.660;2022-09-14T05:16:12;1.70;;;1.60;;
4909;SDS011;2470;49.868;8.660;2022-09-14T05:18:40;3.42;;;2.80;;
4909;SDS011;2470;49.868;8.660;2022-09-14T05:21:07;4.22;;;2.15;;
4909;SDS011;2470;49.868;8.660;2022-09-14T05:23:36;3.25;;;1.75;;
4909;SDS011;2470;49.868;8.660;2022-09-14T05:26:02;1.80;;;1.70;;
4909;SDS011;2470;49.868;8.660;2022-09-14T05:28:30;1.70;;;1.45;;
4909;SDS011;2470;49.868;8.660;2022-09-14T05:30:56;1.88;;;1.67;;
4909;SDS011;2470;49.868;8.660;2022-09-14T05:33:21;1.88;;;1.52;;
4909;SDS011;2470;49.868;8.660;2022-09-14T05:35:47;1.98;;;1.65;;
4909;SDS011;2470;49.868;8.660;2022-09-14T05:38:15;1.33;;;1.23;;
4909;SDS011;2470;49.868;8.660;2022-09-14T05:40:40;1.67;;;1.58;;
4909;SDS011;2470;49.868;8.660;2022-09-14T05:43:06;6.47;;;2.00;;
4909;SDS011;2470;49.868;8.660;2022-09-14T05:45:33;2.05;;;1.85;;
4909;SDS011;2470;49.868;8.660;2022-09-14T05:47:59;1.50;;;1.40;;
4909;SDS011;2470;49.868;8.660;2022-09-14T05:50:29;3.25;;;2.42;;
4909;SDS011;2470;49.868;8.660;2022-09-14T05:52:58;1.92;;;1.40;;
4909;SDS011;2470;49.868;8.660;2022-09-14T05:55:24;1.60;;;1.50;;
4909;SDS011;2470;49.868;8.660;2022-09-14T05:57:50;1.73;;;1.63;;
4909;SDS011;2470;49.868;8.660;2022-09-14T06:00:16;2.90;;;1.85;;
4909;SDS011;2470;49.868;8.660;2022-09-14T06:02:46;1.55;;;1.30;;
4909;SDS011;2470;49.868;8.660;2022-09-14T06:05:13;2.25;;;1.60;;
4909;SDS011;2470;49.868;8.660;2022-09-14T06:07:39;2.75;;;1.60;;
4909;SDS011;2470;49.868;8.660;2022-09-14T06:10:04;1.75;;;1.27;;
4909;SDS011;2470;49.868;8.660;2022-09-14T06:12:30;1.73;;;1.63;;
4909;SDS011;2470;49.868;8.660;2022-09-14T06:14:56;1.75;;;1.65;;
4909;SDS011;2470;49.868;8.660;2022-09-14T06:17:22;2.75;;;1.30;;
4909;SDS011;2470;49.868;8.660;2022-09-14T06:19:48;1.38;;;1.27;;
4909;SDS011;2470;49.868;8.660;2022-09-14T06:22:13;1.80;;;1.60;;
4909;SDS011;2470;49.868;8.660;2022-09-14T06:24:39;3.63;;;2.28;;
4909;SDS011;2470;49.868;8.660;2022-09-14T06:27:04;3.53;;;2.10;;
4909;SDS011;2470;49.868;8.660;2022-09-14T06:29:32;2.08;;;1.88;;
4909;SDS011;2470;49.868;8.660;2022-09-14T06:31:58;5.10;;;2.10;;
4909;SDS011;2470;49.868;8.660;2022-09-14T06:34:24;2.33;;;2.13;;
4909;SDS011;2470;49.868;8.660;2022-09-14T06:36:49;2.15;;;1.83;;
4909;SDS011;2470;49.868;8.660;2022-09-14T06:39:15;1.67;;;1.50;;
4909;SDS011;2470;49.868;8.660;2022-09-14T06:41:40;1.70;;;1.60;;
4909;SDS011;2470;49.868;8.660;2022-09-14T06:44:06;2.05;;;1.90;;
4909;SDS011;2470;49.868;8.660;2022-09-14T06:46:32;2.47;;;1.73;;
4909;SDS011;2470;49.868;8.660;2022-09-14T06:48:59;2.05;;;1.67;;
4909;SDS011;2470;49.868;8.660;2022-09-14T06:51:30;3.03;;;2.13;;
4909;SDS011;2470;49.868;8.660;2022-09-14T06:53:58;2.83;;;1.75;;
4909;SDS011;2470;49.868;8.660;2022-09-14T06:56:25;1.92;;;1.40;;
4909;SDS011;2470;49.868;8.660;2022-09-14T06:58:51;2.67;;;1.50;;
4909;SDS011;2470;49.868;8.660;2022-09-14T07:01:18;1.60;;;1.50;;
4909;SDS011;2470;49.868;8.660;2022-09-14T07:03:45;1.90;;;1.60;;
4909;SDS011;2470;49.868;8.660;2022-09-14T07:06:15;3.00;;;2.05;;
4909;SDS011;2470;49.868;8.660;2022-09-14T07:08:45;1.60;;;1.38;;
4909;SDS011;2470;49.868;8.660;2022-09-14T07:11:11;1.88;;;1.70;;
4909;SDS011;2470;49.868;8.660;2022-09-14T07:13:38;2.03;;;1.83;;
4909;SDS011;2470;49.868;8.660;2022-09-14T07:16:04;2.78;;;1.77;;
4909;SDS011;2470;49.868;8.660;2022-09-14T07:18:29;1.60;;;1.50;;
4909;SDS011;2470;49.868;8.660;2022-09-14T07:23:27;1.40;;;1.30;;
4909;SDS011;2470;49.868;8.660;2022-09-14T07:26:06;2.80;;;1.80;;
4909;SDS011;2470;49.868;8.660;2022-09-14T07:28:35;2.85;;;1.80;;
4909;SDS011;2470;49.868;8.660;2022-09-14T07:31:02;1.70;;;1.60;;
4909;SDS011;2470;49.868;8.660;2022-09-14T07:33:28;1.20;;;1.10;;
4909;SDS011;2470;49.868;8.660;2022-09-14T07:35:54;2.13;;;1.90;;
4909;SDS011;2470;49.868;8.660;2022-09-14T07:38:28;2.08;;;1.63;;
4909;SDS011;2470;49.868;8.660;2022-09-14T07:40:56;2.60;;;2.15;;
4909;SDS011;2470;49.868;8.660;2022-09-14T07:43:22;1.60;;;1.30;;
4909;SDS011;2470;49.868;8.660;2022-09-14T07:45:47;2.03;;;1.58;;
4909;SDS011;2470;49.868;8.660;2022-09-14T07:48:13;2.10;;;1.63;;
4909;SDS011;2470;49.868;8.660;2022-09-14T07:50:38;1.73;;;1.63;;
4909;SDS011;2470;49.868;8.660;2022-09-14T07:53:04;5.63;;;2.10;;
4909;SDS011;2470;49.868;8.660;2022-09-14T07:55:29;1.73;;;1.60;;
4909;SDS011;2470;49.868;8.660;2022-09-14T07:57:55;1.60;;;1.50;;
4909;SDS011;2470;49.868;8.660;2022-09-14T08:00:20;3.40;;;1.65;;
4909;SDS011;2470;49.868;8.660;2022-09-14T08:02:50;1.80;;;1.70;;
4909;SDS011;2470;49.868;8.660;2022-09-14T08:05:19;2.97;;;1.20;;
4909;SDS011;2470;49.868;8.660;2022-09-14T08:07:56;1.50;;;1.40;;
4909;SDS011;2470;49.868;8.660;2022-09-14T08:10:22;1.55;;;1.45;;
4909;SDS011;2470;49.868;8.660;2022-09-14T08:12:51;1.80;;;1.70;;
4909;SDS011;2470;49.868;8.660;2022-09-14T08:15:22;1.67;;;1.58;;
4909;SDS011;2470;49.868;8.660;2022-09-14T08:17:47;1.98;;;1.73;;
4909;SDS011;2470;49.868;8.660;2022-09-14T08:20:14;2.55;;;2.35;;
4909;SDS011;2470;49.868;8.660;2022-09-14T08:22:40;3.10;;;2.47;;
4909;SDS011;2470;49.868;8.660;2022-09-14T08:25:07;2.05;;;1.85;;
4909;SDS011;2470;49.868;8.660;2022-09-14T08:27:33;3.75;;;2.58;;
4909;SDS011;2470;49.868;8.660;2022-09-14T08:29:59;3.80;;;2.50;;
4909;SDS011;2470;49.868;8.660;2022-09-14T08:32:24;1.83;;;1.73;;
4909;SDS011;2470;49.868;8.660;2022-09-14T08:34:50;4.75;;;2.45;;
4909;SDS011;2470;49.868;8.660;2022-09-14T08:37:16;5.03;;;2.58;;
4909;SDS011;2470;49.868;8.660;2022-09-14T08:39:42;4.25;;;2.50;;
4909;SDS011;2470;49.868;8.660;2022-09-14T08:42:10;5.43;;;3.28;;
4909;SDS011;2470;49.868;8.660;2022-09-14T08:44:42;6.47;;;4.15;;
4909;SDS011;2470;49.868;8.660;2022-09-14T08:49:46;2.92;;;2.67;;
4909;SDS011;2470;49.868;8.660;2022-09-14T08:52:21;5.03;;;3.40;;
4909;SDS011;2470;49.868;8.660;2022-09-14T08:54:55;7.97;;;3.60;;
4909;SDS011;2470;49.868;8.660;2022-09-14T08:57:26;4.45;;;3.00;;
4909;SDS011;2470;49.868;8.660;2022-09-14T09:05:20;8.25;;;3.90;;
4909;SDS011;2470;49.868;8.660;2022-09-14T09:10:45;4.70;;;3.70;;
4909;SDS011;2470;49.868;8.660;2022-09-14T09:13:17;6.13;;;3.25;;
4909;SDS011;2470;49.868;8.660;2022-09-14T09:15:47;4.00;;;3.60;;
4909;SDS011;2470;49.868;8.660;2022-09-14T09:18:18;4.60;;;3.60;;
4909;SDS011;2470;49.868;8.660;2022-09-14T09:20:51;6.55;;;3.92;;
4909;SDS011;2470;49.868;8.660;2022-09-14T09:23:23;10.85;;;4.70;;
4909;SDS011;2470;49.868;8.660;2022-09-14T09:25:56;5.80;;;4.05;;
4909;SDS011;2470;49.868;8.660;2022-09-14T09:28:38;4.65;;;3.28;;
4909;SDS011;2470;49.868;8.660;2022-09-14T09:31:36;6.32;;;4.38;;
4909;SDS011;2470;49.868;8.660;2022-09-14T09:34:13;7.85;;;3.90;;
4909;SDS011;2470;49.868;8.660;2022-09-14T09:36:41;5.38;;;3.47;;
4909;SDS011;2470;49.868;8.660;2022-09-14T09:39:13;7.57;;;3.45;;
4909;SDS011;2470;49.868;8.660;2022-09-14T09:41:51;5.18;;;3.63;;
4909;SDS011;2470;49.868;8.660;2022-09-14T09:44:22;5.82;;;3.67;;
4909;SDS011;2470;49.868;8.660;2022-09-14T09:46:49;5.32;;;3.60;;
4909;SDS011;2470;49.868;8.660;2022-09-14T09:49:28;4.05;;;2.97;;
4909;SDS011;2470;49.868;8.660;2022-09-14T09:52:09;6.97;;;3.50;;
4909;SDS011;2470;49.868;8.660;2022-09-14T09:54:40;7.07;;;4.10;;
4909;SDS011;2470;49.868;8.660;2022-09-14T09:57:21;6.38;;;3.40;;
4909;SDS011;2470;49.868;8.660;2022-09-14T10:00:08;5.55;;;3.50;;
4909;SDS011;2470;49.868;8.660;2022-09-14T10:02:43;6.82;;;3.70;;
4909;SDS011;2470;49.868;8.660;2022-09-14T10:07:54;9.88;;;4.07;;
4909;SDS011;2470;49.868;8.660;2022-09-14T10:12:59;4.32;;;2.97;;
4909;SDS011;2470;49.868;8.660;2022-09-14T10:15:31;5.05;;;3.70;;
4909;SDS011;2470;49.868;8.660;2022-09-14T10:18:06;6.38;;;3.38;;
4909;SDS011;2470;49.868;8.660;2022-09-14T10:20:33;8.20;;;3.72;;
4909;SDS011;2470;49.868;8.660;2022-09-14T10:23:13;4.30;;;3.28;;
4909;SDS011;2470;49.868;8.660;2022-09-14T10:25:39;9.75;;;3.13;;
4909;SDS011;2470;49.868;8.660;2022-09-14T10:28:15;5.57;;;3.13;;
4909;SDS011;2470;49.868;8.660;2022-09-14T10:31:07;4.13;;;3.53;;
4909;SDS011;2470;49.868;8.660;2022-09-14T10:33:37;5.88;;;3.85;;
4909;SDS011;2470;49.868;8.660;2022-09-14T10:38:38;3.63;;;3.25;;
4909;SDS011;2470;49.868;8.660;2022-09-14T10:41:27;3.10;;;2.80;;
4909;SDS011;2470;49.868;8.660;2022-09-14T10:58:04;4.65;;;3.63;;
4909;SDS011;2470;49.868;8.660;2022-09-14T11:00:56;5.55;;;3.72;;
4909;SDS011;2470;49.868;8.660;2022-09-14T11:20:24;5.75;;;3.53;;
4909;SDS011;2470;49.868;8.660;2022-09-14T11:25:48;6.22;;;3.58;;
4909;SDS011;2470;49.868;8.660;2022-09-14T11:28:28;6.03;;;3.92;;
4909;SDS011;2470;49.868;8.660;2022-09-14T11:31:03;4.90;;;3.28;;
4909;SDS011;2470;49.868;8.660;2022-09-14T11:33:47;7.05;;;4.50;;
4909;SDS011;2470;49.868;8.660;2022-09-14T11:36:24;4.63;;;3.75;;
4909;SDS011;2470;49.868;8.660;2022-09-14T11:38:55;7.68;;;4.30;;
4909;SDS011;2470;49.868;8.660;2022-09-14T11:44:11;6.93;;;4.80;;
4909;SDS011;2470;49.868;8.660;2022-09-14T11:46:59;5.38;;;3.45;;
4909;SDS011;2470;49.868;8.660;2022-09-14T11:49:55;6.72;;;3.45;;
4909;SDS011;2470;49.868;8.660;2022-09-14T11:52:26;7.50;;;4.38;;
4909;SDS011;2470;49.868;8.660;2022-09-14T11:54:53;10.40;;;4.50;;
4909;SDS011;2470;49.868;8.660;2022-09-14T11:57:21;5.95;;;4.03;;
4909;SDS011;2470;49.868;8.660;2022-09-14T11:59:51;8.57;;;3.80;;
4909;SDS011;2470;49.868;8.660;2022-09-14T12:12:38;6.63;;;4.20;;
4909;SDS011;2470;49.868;8.660;2022-09-14T12:15:11;8.57;;;4.57;;
4909;SDS011;2470;49.868;8.660;2022-09-14T12:17:39;5.80;;;4.15;;
4909;SDS011;2470;49.868;8.660;2022-09-14T12:26:32;4.13;;;3.13;;
4909;SDS011;2470;49.868;8.660;2022-09-14T12:28:44;5.68;;;2.90;;
4909;SDS011;2470;49.868;8.660;2022-09-14T12:34:41;5.40;;;3.75;;
4909;SDS011;2470;49.868;8.660;2022-09-14T12:37:01;5.90;;;3.85;;
4909;SDS011;2470;49.868;8.660;2022-09-14T12:39:30;6.88;;;3.55;;
4909;SDS011;2470;49.868;8.660;2022-09-14T12:41:57;6.57;;;4.15;;
4909;SDS011;2470;49.868;8.660;2022-09-14T12:44:40;6.00;;;4.10;;
4909;SDS011;2470;49.868;8.660;2022-09-14T12:50:09;7.03;;;4.28;;
4909;SDS011;2470;49.868;8.660;2022-09-14T12:55:25;5.20;;;3.83;;
4909;SDS011;2470;49.868;8.660;2022-09-14T12:58:56;6.97;;;4.63;;
4909;SDS011;2470;49.868;8.660;2022-09-14T13:06:15;4.55;;;2.75;;
4909;SDS011;2470;49.868;8.660;2022-09-14T13:08:43;9.13;;;4.30;;
4909;SDS011;2470;49.868;8.660;2022-09-14T13:11:16;5.90;;;4.53;;
4909;SDS011;2470;49.868;8.660;2022-09-14T13:13:47;4.25;;;3.00;;
4909;SDS011;2470;49.868;8.660;2022-09-14T13:16:15;6.18;;;3.80;;
4909;SDS011;2470;49.868;8.660;2022-09-14T13:19:01;9.38;;;5.22;;
4909;SDS011;2470;49.868;8.660;2022-09-14T13:21:28;5.65;;;3.83;;
4909;SDS011;2470;49.868;8.660;2022-09-14T13:23:54;7.40;;;4.60;;
4909;SDS011;2470;49.868;8.660;2022-09-14T13:26:22;6.40;;;3.80;;
4909;SDS011;2470;49.868;8.660;2022-09-14T13:28:53;6.28;;;3.60;;
4909;SDS011;2470;49.868;8.660;2022-09-14T13:31:24;7.25;;;3.75;;
4909;SDS011;2470;49.868;8.660;2022-09-14T13:33:57;4.75;;;3.33;;
4909;SDS011;2470;49.868;8.660;2022-09-14T13:36:25;8.80;;;4.13;;
4909;SDS011;2470;49.868;8.660;2022-09-14T13:38:53;6.13;;;4.40;;
4909;SDS011;2470;49.868;8.660;2022-09-14T13:41:20;10.75;;;5.63;;
4909;SDS011;2470;49.868;8.660;2022-09-14T13:43:47;10.88;;;5.97;;
4909;SDS011;2470;49.868;8.660;2022-09-14T13:46:16;6.70;;;4.47;;
4909;SDS011;2470;49.868;8.660;2022-09-14T13:48:42;6.65;;;4.75;;
4909;SDS011;2470;49.868;8.660;2022-09-14T13:51:08;8.30;;;4.95;;
4909;SDS011;2470;49.868;8.660;2022-09-14T13:53:46;7.85;;;5.68;;
4909;SDS011;2470;49.868;8.660;2022-09-14T13:56:17;11.30;;;4.82;;
4909;SDS011;2470;49.868;8.660;2022-09-14T13:58:45;9.10;;;5.15;;
4909;SDS011;2470;49.868;8.660;2022-09-14T14:01:12;9.07;;;4.50;;
4909;SDS011;2470;49.868;8.660;2022-09-14T14:03:47;20.05;;;5.00;;
4909;SDS011;2470;49.868;8.660;2022-09-14T14:06:20;5.80;;;3.42;;
4909;SDS011;2470;49.868;8.660;2022-09-14T14:11:34;11.07;;;5.05;;
4909;SDS011;2470;49.868;8.660;2022-09-14T14:14:09;5.95;;;5.30;;
4909;SDS011;2470;49.868;8.660;2022-09-14T14:19:37;8.73;;;5.45;;
4909;SDS011;2470;49.868;8.660;2022-09-14T14:24:43;10.50;;;5.38;;
4909;SDS011;2470;49.868;8.660;2022-09-14T14:29:57;9.93;;;6.15;;
4909;SDS011;2470;49.868;8.660;2022-09-14T14:32:25;9.13;;;5.20;;
4909;SDS011;2470;49.868;8.660;2022-09-14T14:34:51;11.32;;;4.90;;
4909;SDS011;2470;49.868;8.660;2022-09-14T14:37:18;6.57;;;4.22;;
4909;SDS011;2470;49.868;8.660;2022-09-14T14:39:44;10.40;;;5.07;;
4909;SDS011;2470;49.868;8.660;2022-09-14T14:42:10;11.73;;;4.93;;
4909;SDS011;2470;49.868;8.660;2022-09-14T14:44:37;8.10;;;5.20;;
4909;SDS011;2470;49.868;8.660;2022-09-14T14:47:04;6.75;;;4.35;;
4909;SDS011;2470;49.868;8.660;2022-09-14T14:49:30;10.57;;;5.22;;
4909;SDS011;2470;49.868;8.660;2022-09-14T14:51:56;10.32;;;4.55;;
4909;SDS011;2470;49.868;8.660;2022-09-14T14:54:21;8.63;;;5.20;;
4909;SDS011;2470;49.868;8.660;2022-09-14T14:56:48;8.77;;;5.57;;
4909;SDS011;2470;49.868;8.660;2022-09-14T15:01:43;7.40;;;4.72;;
4909;SDS011;2470;49.868;8.660;2022-09-14T15:04:09;12.82;;;5.45;;
4909;SDS011;2470;49.868;8.660;2022-09-14T15:06:35;8.25;;;5.65;;
4909;SDS011;2470;49.868;8.660;2022-09-14T15:09:00;6.05;;;4.50;;
4909;SDS011;2470;49.868;8.660;2022-09-14T15:11:26;9.48;;;5.43;;
4909;SDS011;2470;49.868;8.660;2022-09-14T15:13:51;5.22;;;4.38;;
4909;SDS011;2470;49.868;8.660;2022-09-14T15:16:17;7.72;;;2.92;;
4909;SDS011;2470;49.868;8.660;2022-09-14T15:18:42;2.13;;;1.92;;
4909;SDS011;2470;49.868;8.660;2022-09-14T15:21:08;4.32;;;1.85;;
4909;SDS011;2470;49.868;8.660;2022-09-14T15:23:34;1.65;;;1.48;;
4909;SDS011;2470;49.868;8.660;2022-09-14T15:25:59;2.13;;;1.90;;
4909;SDS011;2470;49.868;8.660;2022-09-14T15:28:25;1.52;;;1.30;;
4909;SDS011;2470;49.868;8.660;2022-09-14T15:30:51;1.52;;;1.42;;
4909;SDS011;2470;49.868;8.660;2022-09-14T15:33:17;1.33;;;1.23;;
4909;SDS011;2470;49.868;8.660;2022-09-14T15:35:43;1.55;;;1.45;;
4909;SDS011;2470;49.868;8.660;2022-09-14T15:38:09;1.70;;;1.25;;
4909;SDS011;2470;49.868;8.660;2022-09-14T15:40:34;1.20;;;1.10;;
4909;SDS011;2470;49.868;8.660;2022-09-14T15:43:01;1.50;;;1.30;;
4909;SDS011;2470;49.868;8.660;2022-09-14T15:45:26;1.80;;;1.20;;
4909;SDS011;2470;49.868;8.660;2022-09-14T15:47:52;1.35;;;1.17;;
4909;SDS011;2470;49.868;8.660;2022-09-14T15:50:20;1.00;;;1.00;;
4909;SDS011;2470;49.868;8.660;2022-09-14T15:52:55;3.70;;;1.15;;
4909;SDS011;2470;49.868;8.660;2022-09-14T15:55:21;11.68;;;1.85;;
4909;SDS011;2470;49.868;8.660;2022-09-14T15:57:46;1.45;;;1.30;;
4909;SDS011;2470;49.868;8.660;2022-09-14T16:00:12;1.60;;;1.10;;
4909;SDS011;2470;49.868;8.660;2022-09-14T16:02:39;1.17;;;1.05;;
4909;SDS011;2470;49.868;8.660;2022-09-14T16:05:05;1.20;;;1.10;;
4909;SDS011;2470;49.868;8.660;2022-09-14T16:07:31;1.40;;;1.00;;
4909;SDS011;2470;49.868;8.660;2022-09-14T16:09:57;1.10;;;0.90;;
4909;SDS011;2470;49.868;8.660;2022-09-14T16:12:22;1.10;;;1.00;;
4909;SDS011;2470;49.868;8.660;2022-09-14T16:14:48;2.50;;;1.27;;
4909;SDS011;2470;49.868;8.660;2022-09-14T16:17:14;1.10;;;1.00;;
4909;SDS011;2470;49.868;8.660;2022-09-14T16:19:39;1.33;;;1.23;;
4909;SDS011;2470;49.868;8.660;2022-09-14T16:22:05;1.27;;;1.10;;
4909;SDS011;2470;49.868;8.660;2022-09-14T16:24:31;1.13;;;1.02;;
4909;SDS011;2470;49.868;8.660;2022-09-14T16:26:57;1.75;;;1.38;;
4909;SDS011;2470;49.868;8.660;2022-09-14T16:29:23;2.58;;;1.13;;
4909;SDS011;2470;49.868;8.660;2022-09-14T16:31:49;2.17;;;1.20;;
4909;SDS011;2470;49.868;8.660;2022-09-14T16:34:17;2.85;;;1.52;;
4909;SDS011;2470;49.868;8.660;2022-09-14T16:36:45;3.08;;;1.73;;
4909;SDS011;2470;49.868;8.660;2022-09-14T16:39:12;2.47;;;1.50;;
4909;SDS011;2470;49.868;8.660;2022-09-14T16:41:43;1.08;;;0.98;;
4909;SDS011;2470;49.868;8.660;2022-09-14T16:44:10;1.40;;;1.30;;
4909;SDS011;2470;49.868;8.660;2022-09-14T16:46:38;1.33;;;1.23;;
4909;SDS011;2470;49.868;8.660;2022-09-14T16:49:04;2.05;;;1.38;;
4909;SDS011;2470;49.868;8.660;2022-09-14T16:51:30;2.08;;;1.50;;
4909;SDS011;2470;49.868;8.660;2022-09-14T16:53:57;3.75;;;1.80;;
4909;SDS011;2470;49.868;8.660;2022-09-14T16:56:25;1.48;;;1.38;;
4909;SDS011;2470;49.868;8.660;2022-09-14T16:58:52;1.92;;;1.60;;
4909;SDS011;2470;49.868;8.660;2022-09-14T17:01:23;1.20;;;1.10;;
4909;SDS011;2470;49.868;8.660;2022-09-14T17:03:54;1.33;;;1.23;;
4909;SDS011;2470;49.868;8.660;2022-09-14T17:06:26;1.50;;;1.10;;
4909;SDS011;2470;49.868;8.660;2022-09-14T17:08:54;4.57;;;1.20;;
4909;SDS011;2470;49.868;8.660;2022-09-14T17:11:32;1.23;;;1.13;;
4909;SDS011;2470;49.868;8.660;2022-09-14T17:13:58;1.45;;;1.35;;
4909;SDS011;2470;49.868;8.660;2022-09-14T17:16:25;1.80;;;1.38;;
4909;SDS011;2470;49.868;8.660;2022-09-14T17:18:55;1.10;;;1.00;;
4909;SDS011;2470;49.868;8.660;2022-09-14T17:21:24;9.73;;;1.50;;
4909;SDS011;2470;49.868;8.660;2022-09-14T17:23:55;1.70;;;1.35;;